Terminal Aerodrome Forecast
Issued by NWS Northern Indiana

Home | Current Version | Previous Version | Text Only | Print | Product List | Glossary On
Versions: 1 2 3 4 5 6 7 8 9 10 11 12 13 14 15 16
000
FTUS43 KIWX 030500
TAFFWA
TAF
KFWA 030529Z 0306/0406 24004KT P6SM SCT250
     FM030900 VRB02KT 4SM BR SKC
      TEMPO 0310/0313 1SM BR
     FM031400 22006KT P6SM SKC
     FM040000 18004KT P6SM SCT250=

USA.gov is the U.S. government's official web portal to all federal, state and local government web resources and services.